Timeline UpdatesTrip UpdatesNews PostsPvt PostsTravel TipsAdmin PostsConv PostsFollowed PostsChat RequestsBlog PostsPNR Posts

Disclaimer
Search
 
 
Thu Oct 2, 2014 03:50:17 ISTHomeTrainsΣChainsAtlasPNRForumGalleryNewsFAQTripsMembersLoginFeedback
No Recent News for this Train
Other Trains in the News **new
Latest...
Timings of Train No. 57562 Manmad-Kacheguda Passenger are revised with effect from 23rd September, 2013.
Sat Sep 21, 2013 (04:26PM)
⇐ Return Journey: Train# 57561

57562/Manmad - Kacheguda Passenger (UnReserved)

Time-Table HAS CHANGED.
Sep 03 (4:59PM)
Change Departure Station:
Change Arrival Station:
Post a Train Travel TipPost a Train Travel Tip **new
Post a Comment/Question/Picture/VideoPost a Comment/Question/Picture/Video
Pantry/Catering
✕ NO Pantry Car
✓ Catering Avbl
RSA - Rake Sharing
57542-57562-57561-57590-57541-57558-57557
Rake/Coach Composition
LOCO-SLR-GEN-GEN-GEN-GEN-GEN-GEN-GEN-GEN-GEN-GEN-SLR.
Loco
MLY WDM 2/3A or WDG 3A.
News    PNR    Forum    Time-Table    Availability    Fare Chart    Map    Arr/Dep History    Trips    Gallery    ΣChains    X/O    Timeline    
Travel Time: 1h 11m    12 halts    Distance: 17 km    Avg Speed: 14 km/hr
Type: Passenger
Zone: SCR/South Central
Departs @ 21:19
Platform# ???
SMTWTFS
Bolarum Bazar/BOZ 
Arrives @ 22:30
Platform# 2
SMTWTFS
Hyderabad Kacheguda/KCG 

12 halts. 12 intermediate Stations between Bolarum Bazar and Hyderabad Kacheguda

Show ALL intermediate Stations  Show Old Time-Table

#CodeStation NameX/OArrivesAvgDepartsAvgHaltPFDay#KmSpeedElevZoneAddress
1MMRManmad Junction (6)  -05:20---1-606.855580mCRManmad 423104, Maharashtra
2ANKAnkai (3)X  05:34-05:35-1m21-593.925620mSCRDist. Nashik, Maharashtra
3NSLNagarsol (2)  05:45 05:59-06:30 06:00-45 1m--1-583.941589mSCRDist. Nashik, Maharashtra
4TRTarurXO  06:49 06:09-06:50 06:10-1m--1-577.817586mSCRTaru, Maharashtra
5RGORotegaonX  07:29-07:30-1m--1-556.082547mSCRAurangabad, Maharashtra
6PSDParsoda  07:37 07:39-07:38 07:40-1m--1-543.740530mSCRRotegaon, Maharashtra
7KAJGKaranjgaonX  07:42 07:47-07:43 07:48-1m--1-539.068523mSCRLasur, Maharashtra
8LSRLasur (2)  07:50 07:57-07:51 07:58-1m--1-528.8118536mSCRAurangabad, Maharashtra
9POZPotul (1)X  07:58 08:04-07:59 08:05-1m11-517.162554mSCRLasur, Maharashtra
10DLBDaulatabad (1)X  08:04 08:14-08:05 08:15-1m11-507.850575mSCRDaulatabad, Maharashtra
11AWBAurangabad (5)  08:15 08:30-08:20 08:35-5m--1-495.3150561mSCRAurangabad 431001, Maharashtra
12MKDDMukundwadi Halt (1)X  08:26 08:39-08:27 08:40-1m11-485.3-580mSCRAurangabad, Maharashtra
13CTHChikalthan  08:30 08:44-08:31 08:45-1m--1-471.040582mSCRAurangabad, Maharashtra
14KMVKarmadX  08:39 08:51-08:40 08:52-1m--1-467.0103567mSCRAurangabad, Maharashtra
15BDUBadnapur  08:51 09:01-08:52 09:02-1m--1-451.6104523mSCRJalna, Maharashtra
16JJalna (3)  09:13-09:15-2m--1-432.665502mSCRJalna, Maharashtra
17SVDSarwari  09:24-09:25-1m--1-422.966493mSCRRanjani, Maharashtra
18KODIKodi  09:34-09:35-1m--1-413.075473mSCRRanjani, Maharashtra
19RNERanjani  09:44-09:45-1m--1-401.742469mSCRJalna, Maharashtra
20PDGParadgaon  09:54-09:55-1m--1-395.548454mSCRUsmanpur, Maharashtra
21PTUPartur (2)  10:04-10:05-1m--1-388.363465mSCRJalna, Maharashtra
22UPRUsmanpurX  10:14-10:15-1m--1-378.853444mSCRUsmanpur, Maharashtra
23SCOSatuna  10:24-10:25-1m--1-370.932440mSCRSatona, Maharashtra
24SELUSelu (2)  10:44-10:45-1m--1-360.764436mSCRParbhani, Maharashtra
25DGPPDhengli PimpalgaonX  10:54-10:55-1m--1-351.123407mSCRSatuna, Maharashtra
26MVOManwath Road (2)  11:09-11:10-1m--1-345.662421mSCRParbhani, Maharashtra
27DAVDevalgaon AvcharX  11:19-11:20-1m--1-336.440425mSCRParbhani, Maharashtra
28PGPergaon  11:29-11:30-1m--1-330.417441mSCRParbhani, Maharashtra
29PBNParbhani Junction (3)  12:13-12:15-2m21-318.373414mSCRParbhani 431401, Maharashtra
30PIZPingli (1)  12:24-12:25-1m11-307.336399mSCRParbhani, Maharashtra
31MQLMirkhal  12:34-12:35-1m--1-301.918405mSCRPurna, Maharashtra
32PAUPurna Junction (4)X  13:15-13:20-5m--1-289.866384mSCRPurna, Maharashtra
33CRUChudawa (1)O  13:29-13:30-1m11-279.964392mSCRHingoli, Maharashtra
34LBGLimbgaon (2)X  13:39-13:40-1m--1-270.331390mSCRHuzur Sahib Nanded, Maharashtra
35WNGWanegaonO  13:49-13:50-1m--1-265.613371mSCRChudawa, Maharashtra
36NEDHazur Sahib Nanded (4)  14:20-14:25-5m--1-259.283366mSCRNanded, Maharashtra
37MTDIMaltekdiX  14:29 14:27-14:30 14:28-1m--1-256.453362mSCRNanded, Maharashtra
38PARDPathrad  14:36-14:37-1m--1-249.316363mSCRHuzur Sahib Nanded, Maharashtra
39MGCMugatX  14:49-14:50-1m--1-246.042360mSCRHuzur Sahib Nanded, Maharashtra
40MUEMudkhed Junction (4)X  15:03-15:05-2m--1-236.848378mSCRMudkhed, Maharashtra
41SVNSivungaon  15:29 15:14-15:30 15:15-1m--1-229.667395mSCRHuzur Sahib Nanded, Maharashtra
42SLGHShelgaon Halt  15:34 15:19-15:35 15:20-1m--1-225.252378mSCRMudkhed, Maharashtra
43UMRIUmri (1)  15:40 15:29-15:41 15:30-1m11-217.484381mSCRHuzur Sahib Nanded, Maharashtra
44BLSABolsaO  15:45 15:36-15:46 15:37-1m--1-208.949361mSCRDharmabad, Maharashtra
45KEKKarkheli  15:50 15:46-15:51 15:47-1m--1-201.662358mSCRBiloli, Maharashtra
46SQESamarala HaltX  15:58 15:54-15:59 15:55-1m--1-194.428360mSCRDharmabad, Maharashtra
47DABDharmabad (2)  16:07 16:09-16:08 16:10-1m--1-187.959354mSCRDegaon, Maharashtra
48BSXBasar (2)  16:15 16:20-16:16 16:22-1 2m11-178.158358mSCRDist Adilabad, Telangana
49FKBFakrabad (1)  16:23 16:29-16:24 16:30-1m11-171.347348mSCRNizamabad Dist., Telangana
50NVTNavipet (2)  16:52 16:39-16:53 16:40-1m--1-164.363374mSCRNizamabad Dist., Telangana
51JKMJankampet Junction (1)  17:02 16:49-17:03 16:50-1m11-154.916391mSCRJankampet Junction nizamabad dist., Telangana
52NZBNizamabad (3)X  17:13-17:16-3m--1-148.764384mSCRNizamabad, Telangana
53DHPDichpalliX  17:28-17:29-1m--1-135.963424mSCRNizamabad Dist., Telangana
54IDLIndalvai (1)X  17:38-17:39-1m11-126.468439mSCRNizamabad Dist., Telangana
55SCPSirnapalli  17:46-17:47-1m--1-118.557456mSCRNizamabad Dist., Telangana
56UPWUppalavai  17:58-17:59-1m--1-108.132529mSCRNizamabad Dist., Telangana
57KMCKamareddi (3)  18:20-18:22-2m11-96.867528mSCRNizamabad Dist., Telangana
58TMDTalmadla  18:31-18:32-1m--1-86.855559mSCRNizamabad Dist., Telangana
59THPRTippapur (1)  18:36 18:38-18:37 18:39-1m11-81.361549mSCRNizamabad Dist., Telangana
60BKUBhiknur  18:43-18:44-1m--1-77.241575mSCRNizamabad Dist., Telangana
61AKEAkanapet (1)  18:53-18:54-1m11-71.172566mSCRMedak District., Telangana
62MZLMirzapalli (1)  19:03-19:04-1m11-60.328530mSCRMedak Dist., Telangana
63WDRWadiaram (2)X  19:18-19:19-1m--1-53.848547mSCRMedak Dist., Telangana
64SHANSrinivasa Nagar  19:20 19:25-19:21 19:26-1m--1-49.023522mSCRMedak Dist., Telangana
65MEMasaipet (2)  19:34-19:35-1m--1-45.942520mSCRMedak Dist., Telangana
66BMPLBrahmanapalli (1)  19:40 19:39-19:41 19:40-1m11-43.134528mSCRMedak Dist., Telangana
67PAPMPalata Potaram (1)X  19:45 19:43-19:46 19:44-1m11-41.438522mSCRMedak Dist., Telangana
68MOBManoharabad (2)  20:04-20:05-1m--1-28.893593mSCRMedak Dist., Telangana
69DBVDabilpur (1)O  20:09 20:11-20:10 20:12-1m11-19.57611mSCRRangareddy Dist., Telangana
70MEDMedchal (3)  20:48-20:49-1m11-15.551602mSCRRangareddy Dist., Telangana
71GWVGowdavalli (1)X  20:53-20:54-1m11-12.262601mSCRRangareddy Dist., Telangana
72GDPLGundla Pochampally (1)  20:59-21:00-1m11-7.023601mSCRRangareddy Dist., Telangana
73BMOBolarum (3)  21:14-21:15-1m11-1.733597mSCRSecunderabad, Telangana
74BOZBolarum Bazar (2)» new halt!!X  21:18-21:19-1m--10.048584mSCRSecunderabad, Telangana
75ALWAlwal (2) new halt!!  21:21-21:22-1m--11.618580mSCRSecunderabad, Telangana
76CVBCavalry Barracks (3)  21:29 21:26-21:30 21:27-1m212.883575mSCRSecunderabad, Telangana
77AMQAmmuguda Halt (2) new halt!!X  21:28-21:29-1m--14.233569mSCRSecunderabad, Telangana
78RKORamakistapuram Gate (2) new halt!!X  21:31-21:32-1m--15.334561mSCRSecunderabad, Telangana
79SFXSafilguda (2) new halt!!  21:35-21:36-1m--17.036544mSCRSecunderabad, Telangana
80DYEDayanand Nagar (2) new halt!!  21:37-21:38-1m--17.611537mSCRSecunderabad, Telangana
81MJFMalkajgiri (3)  21:43-21:44-1m218.520535mSCRSecunderabad, Telangana
82LGDHLalaguda Gate (2) new halt!!  21:47-21:48-1m--19.553543mSCRSecunderabad, Telangana
83STPDSitafalmandi (4)  21:51-21:52-1m4112.133533mSCRSecunderabad, Telangana
84ATCArts College (2) new halt!!  21:54-21:55-1m--113.236521mSCRHyderabad, Telangana
85JOOJamai Osmania (2) new halt!!  21:56-21:57-1m--113.888515mSCRHyderabad, Telangana
86VARVidya Nagar (2) new halt!!  21:58-21:59-1m--115.34505mSCRHyderabad, Telangana
87KCGHyderabad Kacheguda (5)•  22:30--2117.2-494mSCRHyderabad - 500027, Telangana
Scroll to Top
Scroll to Bottom